createdAt,value
2017-05-20T00:00:40.970Z,1024.55
2017-05-20T00:01:41.612Z,1024.52
2017-05-20T00:02:42.246Z,1024.42
2017-05-20T00:03:42.888Z,1024.45
2017-05-20T00:04:43.528Z,1024.41
2017-05-20T00:05:44.164Z,1024.44
2017-05-20T00:06:44.799Z,1024.48
2017-05-20T00:07:45.438Z,1024.42
2017-05-20T00:08:46.281Z,1024.36
2017-05-20T00:09:46.921Z,1024.36
2017-05-20T00:10:47.562Z,1024.41
2017-05-20T00:11:48.196Z,1024.34
2017-05-20T00:12:48.837Z,1024.33
2017-05-20T00:13:49.480Z,1024.29
2017-05-20T00:14:50.122Z,1024.39
2017-05-20T00:15:50.760Z,1024.28
2017-05-20T00:16:51.650Z,1024.31
2017-05-20T00:17:52.292Z,1024.37
2017-05-20T00:18:52.933Z,1024.28
2017-05-20T00:19:53.573Z,1024.30
2017-05-20T00:20:54.218Z,1024.24
2017-05-20T00:21:54.857Z,1024.29
2017-05-20T00:22:55.497Z,1024.24
2017-05-20T00:23:56.131Z,1024.29
2017-05-20T00:24:56.968Z,1024.22
2017-05-20T00:25:57.607Z,1024.22
2017-05-20T00:26:58.248Z,1024.15
2017-05-20T00:27:58.888Z,1024.19
2017-05-20T00:28:59.526Z,1024.19
2017-05-20T00:30:00.167Z,1024.19
2017-05-20T00:31:00.810Z,1024.18
2017-05-20T00:32:01.449Z,1024.26
2017-05-20T00:33:02.289Z,1024.20
2017-05-20T00:34:02.929Z,1024.20
2017-05-20T00:35:03.567Z,1024.18
2017-05-20T00:36:04.207Z,1024.22
2017-05-20T00:37:04.845Z,1024.15
2017-05-20T00:38:05.486Z,1024.20
2017-05-20T00:39:06.127Z,1024.14
2017-05-20T00:40:06.763Z,1024.19
2017-05-20T00:41:07.407Z,1024.13
2017-05-20T00:42:08.198Z,1024.13
2017-05-20T00:43:08.895Z,1024.13
2017-05-20T00:44:09.538Z,1024.16
2017-05-20T00:45:10.171Z,1024.07
2017-05-20T00:46:10.811Z,1024.10
2017-05-20T00:47:11.773Z,1024.09
2017-05-20T00:48:12.409Z,1024.12
2017-05-20T00:49:13.049Z,1024.09
2017-05-20T00:50:13.887Z,1024.13
2017-05-20T00:51:14.522Z,1024.12
2017-05-20T00:52:15.160Z,1024.09
2017-05-20T00:53:15.803Z,1024.02
2017-05-20T00:54:16.442Z,1024.03
2017-05-20T00:55:17.081Z,1023.95
2017-05-20T00:56:17.721Z,1023.95
2017-05-20T00:57:18.361Z,1023.88
2017-05-20T00:58:19.203Z,1023.89
2017-05-20T00:59:19.837Z,1023.96
2017-05-20T01:00:20.478Z,1023.96
2017-05-20T01:01:21.119Z,1023.90
2017-05-20T01:02:21.758Z,1023.96
2017-05-20T01:03:22.395Z,1023.98
2017-05-20T01:04:23.037Z,1023.92
2017-05-20T01:05:23.671Z,1023.95
2017-05-20T01:06:24.460Z,1023.90
2017-05-20T01:07:25.103Z,1023.90
2017-05-20T01:08:25.740Z,1023.91
2017-05-20T01:09:26.382Z,1023.84
2017-05-20T01:10:27.020Z,1023.84
2017-05-20T01:11:27.663Z,1023.78
2017-05-20T01:12:28.304Z,1023.79
2017-05-20T01:13:28.944Z,1023.85
2017-05-20T01:14:29.783Z,1023.89
2017-05-20T01:15:30.422Z,1023.85
2017-05-20T01:16:31.064Z,1023.84
2017-05-20T01:17:31.706Z,1023.95
2017-05-20T01:18:32.349Z,1023.87
2017-05-20T01:19:32.985Z,1024.00
2017-05-20T01:20:33.621Z,1023.96
2017-05-20T01:21:34.261Z,1023.84
2017-05-20T01:22:34.905Z,1023.81
2017-05-20T01:23:35.697Z,1023.82
2017-05-20T01:24:36.336Z,1023.91
2017-05-20T01:25:36.978Z,1023.96
2017-05-20T01:26:37.617Z,1023.86
2017-05-20T01:27:38.258Z,1023.84
2017-05-20T01:28:38.899Z,1023.78
2017-05-20T01:29:39.538Z,1023.79
2017-05-20T01:30:40.173Z,1023.84
2017-05-20T01:31:41.012Z,1023.93
2017-05-20T01:32:41.653Z,1023.89
2017-05-20T01:33:42.294Z,1023.86
2017-05-20T01:34:42.934Z,1023.82
2017-05-20T01:35:43.571Z,1023.80
2017-05-20T01:36:44.213Z,1023.77
2017-05-20T01:37:44.854Z,1023.77
2017-05-20T01:38:45.497Z,1023.75
2017-05-20T01:39:46.436Z,1023.81
2017-05-20T01:40:47.077Z,1023.77
2017-05-20T01:41:47.718Z,1023.79
2017-05-20T01:42:48.352Z,1023.59
2017-05-20T01:43:48.993Z,1023.72
2017-05-20T01:44:49.637Z,1023.74
2017-05-20T01:45:50.272Z,1023.70
2017-05-20T01:46:50.912Z,1023.70
2017-05-20T01:47:51.802Z,1023.67
2017-05-20T01:48:52.442Z,1023.70
2017-05-20T01:49:53.083Z,1023.68
2017-05-20T01:50:53.727Z,1023.67
2017-05-20T01:51:54.368Z,1023.61
2017-05-20T01:52:55.006Z,1023.69
2017-05-20T01:53:55.646Z,1023.65
2017-05-20T01:54:56.282Z,1023.60
2017-05-20T01:55:56.923Z,1023.64
2017-05-20T01:56:57.965Z,1023.58
2017-05-20T01:57:58.606Z,1023.60
2017-05-20T01:58:59.249Z,1023.53
2017-05-20T01:59:59.890Z,1023.61
2017-05-20T02:01:00.530Z,1023.51
2017-05-20T02:02:01.165Z,1023.58
2017-05-20T02:03:01.799Z,1023.58
2017-05-20T02:04:02.439Z,1023.53
2017-05-20T02:05:03.277Z,1023.49
2017-05-20T02:06:03.920Z,1023.50
2017-05-20T02:07:04.553Z,1023.47
2017-05-20T02:08:05.194Z,1023.56
2017-05-20T02:09:05.836Z,1023.52
2017-05-20T02:10:06.476Z,1023.50
2017-05-20T02:11:07.112Z,1023.45
2017-05-20T02:12:07.746Z,1023.46
2017-05-20T02:13:08.686Z,1023.44
2017-05-20T02:14:09.325Z,1023.45
2017-05-20T02:15:09.963Z,1023.40
2017-05-20T02:16:10.603Z,1023.43
2017-05-20T02:17:11.237Z,1023.41
2017-05-20T02:18:11.877Z,1023.43
2017-05-20T02:19:12.515Z,1023.34
2017-05-20T02:20:13.154Z,1023.41
2017-05-20T02:21:13.994Z,1023.36
2017-05-20T02:22:14.632Z,1023.41
2017-05-20T02:23:15.273Z,1023.38
2017-05-20T02:24:15.913Z,1023.35
2017-05-20T02:25:16.551Z,1023.31
2017-05-20T02:26:17.191Z,1023.39
2017-05-20T02:27:17.830Z,1023.32
2017-05-20T02:28:18.473Z,1023.35
2017-05-20T02:29:19.314Z,1023.31
2017-05-20T02:30:19.954Z,1023.35
2017-05-20T02:31:20.594Z,1023.30
2017-05-20T02:32:21.229Z,1023.31
2017-05-20T02:33:21.871Z,1023.31
2017-05-20T02:34:22.514Z,1023.29
2017-05-20T02:35:23.152Z,1023.27
2017-05-20T02:36:23.793Z,1023.18
2017-05-20T02:37:24.435Z,1023.22
2017-05-20T02:38:25.221Z,1023.22
2017-05-20T02:39:25.860Z,1023.18
2017-05-20T02:40:26.498Z,1023.17
2017-05-20T02:41:27.143Z,1023.18
2017-05-20T02:42:27.837Z,1023.22
2017-05-20T02:43:28.478Z,1023.21
2017-05-20T02:44:29.118Z,1023.21
2017-05-20T02:45:29.763Z,1023.13
2017-05-20T02:46:30.604Z,1023.20
2017-05-20T02:47:31.245Z,1023.24
2017-05-20T02:48:31.877Z,1023.15
2017-05-20T02:49:32.515Z,1023.20
2017-05-20T02:50:33.156Z,1023.20
2017-05-20T02:51:33.790Z,1023.24
2017-05-20T02:52:34.430Z,1023.20
2017-05-20T02:53:35.064Z,1023.17
2017-05-20T02:54:35.905Z,1023.22
2017-05-20T02:55:36.540Z,1023.12
2017-05-20T02:56:37.180Z,1023.21
2017-05-20T02:57:37.823Z,1023.19
2017-05-20T02:58:38.463Z,1023.22
2017-05-20T02:59:39.106Z,1023.15
2017-05-20T03:00:39.749Z,1023.11
2017-05-20T03:01:40.388Z,1023.12
2017-05-20T03:02:41.280Z,1023.18
2017-05-20T03:03:41.920Z,1023.17
2017-05-20T03:04:42.558Z,1023.18
2017-05-20T03:05:43.196Z,1023.11
2017-05-20T03:06:43.839Z,1023.10
2017-05-20T03:07:44.477Z,1023.09
2017-05-20T03:08:45.119Z,1023.04
2017-05-20T03:09:45.757Z,1023.01
2017-05-20T03:10:46.399Z,1023.09
2017-05-20T03:11:47.239Z,1023.14
2017-05-20T03:12:47.878Z,1023.07
2017-05-20T03:13:48.517Z,1023.02
2017-05-20T03:14:49.215Z,1023.03
2017-05-20T03:15:49.854Z,1023.08
2017-05-20T03:16:50.494Z,1023.05
2017-05-20T03:17:51.133Z,1022.99
2017-05-20T03:18:51.768Z,1023.11
2017-05-20T03:19:52.554Z,1023.01
2017-05-20T03:20:53.196Z,1023.01
2017-05-20T03:21:53.838Z,1023.03
2017-05-20T03:22:54.472Z,1023.00
2017-05-20T03:23:55.112Z,1023.00
2017-05-20T03:24:55.751Z,1023.05
2017-05-20T03:25:56.390Z,1023.03
2017-05-20T03:26:57.032Z,1023.00
2017-05-20T03:27:57.874Z,1022.96
2017-05-20T03:28:58.521Z,1022.96
2017-05-20T03:29:59.157Z,1022.95
2017-05-20T03:30:59.791Z,1022.95
2017-05-20T03:32:00.431Z,1022.95
2017-05-20T03:33:01.069Z,1023.02
2017-05-20T03:34:01.708Z,1022.93
2017-05-20T03:35:02.342Z,1022.92
2017-05-20T03:36:03.129Z,1022.91
2017-05-20T03:37:03.771Z,1022.95
2017-05-20T03:38:04.411Z,1022.93
2017-05-20T03:39:05.050Z,1022.87
2017-05-20T03:40:05.686Z,1022.84
2017-05-20T03:41:06.326Z,1022.85
2017-05-20T03:42:06.962Z,1022.90
2017-05-20T03:43:07.598Z,1022.83
2017-05-20T03:44:08.437Z,1022.79
2017-05-20T03:45:09.077Z,1022.78
2017-05-20T03:46:09.713Z,1022.80
2017-05-20T03:47:10.354Z,1022.77
2017-05-20T03:48:10.996Z,1022.81
2017-05-20T03:49:11.636Z,1022.83
2017-05-20T03:50:12.281Z,1022.83
2017-05-20T03:51:12.920Z,1022.80
2017-05-20T03:52:13.559Z,1022.80
2017-05-20T03:53:14.499Z,1022.87
2017-05-20T03:54:15.140Z,1022.84
2017-05-20T03:55:15.782Z,1022.77
2017-05-20T03:56:16.419Z,1022.78
2017-05-20T03:57:17.061Z,1022.76
2017-05-20T03:58:17.700Z,1022.77
2017-05-20T03:59:18.339Z,1022.80
2017-05-20T04:00:18.978Z,1022.75
2017-05-20T04:01:19.819Z,1022.80
2017-05-20T04:02:20.456Z,1022.87
2017-05-20T04:03:21.097Z,1022.86
2017-05-20T04:04:21.737Z,1022.82
2017-05-20T04:05:22.373Z,1022.81
2017-05-20T04:06:23.013Z,1022.81
2017-05-20T04:07:23.648Z,1022.77
2017-05-20T04:08:24.289Z,1022.78
2017-05-20T04:09:25.273Z,1022.79
2017-05-20T04:10:25.913Z,1022.79
2017-05-20T04:11:26.548Z,1022.83
2017-05-20T04:12:27.191Z,1022.75
2017-05-20T04:13:27.833Z,1022.83
2017-05-20T04:14:28.466Z,1022.77
2017-05-20T04:15:29.105Z,1022.75
2017-05-20T04:16:29.745Z,1022.70
2017-05-20T04:17:30.585Z,1022.75
2017-05-20T04:18:31.224Z,1022.74
2017-05-20T04:19:31.864Z,1022.72
2017-05-20T04:20:32.504Z,1022.77
2017-05-20T04:21:33.145Z,1022.77
2017-05-20T04:22:33.784Z,1022.81
2017-05-20T04:23:34.425Z,1022.82
2017-05-20T04:24:35.066Z,1022.71
2017-05-20T04:25:35.706Z,1022.85
2017-05-20T04:26:36.543Z,1022.73
2017-05-20T04:27:37.183Z,1022.78
2017-05-20T04:28:37.826Z,1022.78
2017-05-20T04:29:38.464Z,1022.76
2017-05-20T04:30:39.104Z,1022.83
2017-05-20T04:31:39.744Z,1022.78
2017-05-20T04:32:40.383Z,1022.77
2017-05-20T04:33:41.023Z,1022.77
2017-05-20T04:34:41.859Z,1022.85
2017-05-20T04:35:42.503Z,1022.79
2017-05-20T04:36:43.139Z,1022.72
2017-05-20T04:37:43.782Z,1022.76
2017-05-20T04:38:44.418Z,1022.77
2017-05-20T04:39:45.059Z,1022.81
2017-05-20T04:40:45.700Z,1022.75
2017-05-20T04:41:46.332Z,1022.83
2017-05-20T04:42:47.168Z,1022.86
2017-05-20T04:43:47.802Z,1022.91
2017-05-20T04:44:48.437Z,1022.90
2017-05-20T04:45:49.076Z,1022.84
2017-05-20T04:46:49.717Z,1022.86
2017-05-20T04:47:50.359Z,1022.82
2017-05-20T04:48:50.998Z,1022.86
2017-05-20T04:49:51.639Z,1022.78
2017-05-20T04:50:52.481Z,1022.86
2017-05-20T04:51:53.128Z,1022.83
2017-05-20T04:52:53.768Z,1022.84
2017-05-20T04:53:54.415Z,1022.78
2017-05-20T04:54:55.051Z,1022.73
2017-05-20T04:55:55.690Z,1022.79
2017-05-20T04:56:56.330Z,1022.83
2017-05-20T04:57:56.965Z,1022.83
2017-05-20T04:58:57.805Z,1022.87
2017-05-20T04:59:58.446Z,1022.84
2017-05-20T05:00:59.081Z,1022.92
2017-05-20T05:01:59.719Z,1022.92
2017-05-20T05:03:00.360Z,1022.90
2017-05-20T05:04:01.004Z,1022.90
2017-05-20T05:05:01.645Z,1022.81
2017-05-20T05:06:02.281Z,1022.89
2017-05-20T05:07:02.919Z,1022.83
2017-05-20T05:08:03.711Z,1022.77
2017-05-20T05:09:04.351Z,1022.81
2017-05-20T05:10:04.989Z,1022.86
2017-05-20T05:11:05.622Z,1022.85
2017-05-20T05:12:06.264Z,1022.89
2017-05-20T05:13:06.905Z,1022.88
2017-05-20T05:14:07.543Z,1022.95
2017-05-20T05:15:08.178Z,1022.95
2017-05-20T05:16:09.018Z,1022.97
2017-05-20T05:17:09.660Z,1022.96
2017-05-20T05:18:10.299Z,1022.93
2017-05-20T05:19:10.938Z,1023.00
2017-05-20T05:20:11.577Z,1022.96
2017-05-20T05:21:12.227Z,1022.94
2017-05-20T05:22:12.865Z,1022.94
2017-05-20T05:23:13.504Z,1022.97
2017-05-20T05:24:14.546Z,1022.96
2017-05-20T05:25:15.187Z,1023.03
2017-05-20T05:26:15.824Z,1022.98
2017-05-20T05:27:16.464Z,1022.94
2017-05-20T05:28:17.105Z,1022.92
2017-05-20T05:29:17.743Z,1022.91
2017-05-20T05:30:18.382Z,1022.91
2017-05-20T05:31:19.023Z,1022.94
2017-05-20T05:32:19.912Z,1022.90
2017-05-20T05:33:20.548Z,1022.98
2017-05-20T05:34:21.187Z,1022.98
2017-05-20T05:35:21.827Z,1022.99
2017-05-20T05:36:22.469Z,1022.97
2017-05-20T05:37:23.104Z,1023.00
2017-05-20T05:38:23.744Z,1023.00
2017-05-20T05:39:24.386Z,1023.07
2017-05-20T05:40:25.024Z,1023.05
2017-05-20T05:41:25.813Z,1022.96
2017-05-20T05:42:26.455Z,1023.02
2017-05-20T05:43:27.091Z,1022.96
2017-05-20T05:44:27.729Z,1022.95
2017-05-20T05:45:28.370Z,1022.98
2017-05-20T05:46:29.011Z,1022.99
2017-05-20T05:47:29.651Z,1023.02
2017-05-20T05:48:30.292Z,1022.98
2017-05-20T05:49:31.182Z,1023.05
2017-05-20T05:50:31.821Z,1023.02
2017-05-20T05:51:32.461Z,1023.01
2017-05-20T05:52:33.098Z,1023.04
2017-05-20T05:53:33.737Z,1023.06
2017-05-20T05:54:34.381Z,1023.09
2017-05-20T05:55:35.021Z,1023.05
2017-05-20T05:56:35.658Z,1023.11
2017-05-20T05:57:36.449Z,1023.14
2017-05-20T05:58:37.093Z,1023.07
2017-05-20T05:59:37.731Z,1023.01
2017-05-20T06:00:38.370Z,1023.10
2017-05-20T06:01:39.012Z,1023.05
2017-05-20T06:02:39.652Z,1023.11
2017-05-20T06:03:40.291Z,1023.09
2017-05-20T06:04:40.932Z,1023.12
2017-05-20T06:05:41.870Z,1023.06
2017-05-20T06:06:42.508Z,1023.17
2017-05-20T06:07:43.147Z,1023.12
2017-05-20T06:08:43.786Z,1023.15
2017-05-20T06:09:44.422Z,1023.13
2017-05-20T06:10:45.065Z,1023.14
2017-05-20T06:11:45.707Z,1023.15
2017-05-20T06:12:46.346Z,1023.16
2017-05-20T06:13:47.235Z,1023.19
2017-05-20T06:14:47.874Z,1023.09
2017-05-20T06:15:48.515Z,1023.09
2017-05-20T06:16:49.157Z,1023.11
2017-05-20T06:17:49.797Z,1023.12
2017-05-20T06:18:50.436Z,1023.20
2017-05-20T06:19:51.075Z,1023.15
2017-05-20T06:20:51.712Z,1023.18
2017-05-20T06:21:52.350Z,1023.15
2017-05-20T06:22:53.192Z,1023.09
2017-05-20T06:23:53.831Z,1023.12
2017-05-20T06:24:54.470Z,1023.14
2017-05-20T06:25:55.111Z,1023.09
2017-05-20T06:26:55.750Z,1023.16
2017-05-20T06:27:56.393Z,1023.16
2017-05-20T06:28:57.033Z,1023.14
2017-05-20T06:29:57.672Z,1023.19
2017-05-20T06:30:58.457Z,1023.17
2017-05-20T06:31:59.098Z,1023.05
2017-05-20T06:32:59.737Z,1023.19
2017-05-20T06:34:00.376Z,1023.07
2017-05-20T06:35:01.015Z,1023.17
2017-05-20T06:36:01.652Z,1023.09
2017-05-20T06:37:02.295Z,1023.17
2017-05-20T06:38:02.936Z,1023.12
2017-05-20T06:39:03.776Z,1023.15
2017-05-20T06:40:04.411Z,1023.13
2017-05-20T06:41:05.050Z,1023.12
2017-05-20T06:42:05.694Z,1023.16
2017-05-20T06:43:06.334Z,1023.22
2017-05-20T06:44:06.972Z,1023.13
2017-05-20T06:45:07.612Z,1023.08
2017-05-20T06:46:08.252Z,1023.10
2017-05-20T06:47:09.092Z,1023.04
2017-05-20T06:48:09.732Z,1023.05
2017-05-20T06:49:10.371Z,1023.19
2017-05-20T06:50:11.062Z,1023.11
2017-05-20T06:51:11.666Z,1023.05
2017-05-20T06:52:12.304Z,1022.98
2017-05-20T06:53:12.946Z,1023.02
2017-05-20T06:54:13.583Z,1023.01
2017-05-20T06:55:14.224Z,1022.90
2017-05-20T06:56:15.009Z,1022.97
2017-05-20T06:57:15.648Z,1022.96
2017-05-20T06:58:16.287Z,1022.94
2017-05-20T06:59:16.929Z,1022.98
2017-05-20T07:00:17.577Z,1023.00
2017-05-20T07:01:18.205Z,1023.05
2017-05-20T07:02:18.846Z,1022.98
2017-05-20T07:03:19.481Z,1023.04
2017-05-20T07:04:20.322Z,1022.94
2017-05-20T07:05:20.962Z,1022.89
2017-05-20T07:06:21.599Z,1022.87
2017-05-20T07:07:22.238Z,1022.91
2017-05-20T07:08:22.877Z,1022.83
2017-05-20T07:09:23.514Z,1022.82
2017-05-20T07:10:24.157Z,1022.83
2017-05-20T07:11:24.794Z,1022.93
2017-05-20T07:12:25.634Z,1022.90
2017-05-20T07:13:26.276Z,1022.85
2017-05-20T07:14:26.915Z,1022.84
2017-05-20T07:15:27.554Z,1022.84
2017-05-20T07:16:28.188Z,1022.86
2017-05-20T07:17:28.778Z,1022.92
2017-05-20T07:18:29.413Z,1022.83
2017-05-20T07:19:30.054Z,1022.81
2017-05-20T07:20:30.843Z,1022.85
2017-05-20T07:21:31.485Z,1022.86
2017-05-20T07:22:32.123Z,1022.86
2017-05-20T07:23:32.760Z,1022.82
2017-05-20T07:24:33.395Z,1022.75
2017-05-20T07:25:34.035Z,1022.81
2017-05-20T07:26:34.672Z,1022.82
2017-05-20T07:27:35.305Z,1022.88
2017-05-20T07:28:36.246Z,1022.88
2017-05-20T07:29:36.886Z,1022.89
2017-05-20T07:30:37.529Z,1022.82
2017-05-20T07:31:38.222Z,1022.82
2017-05-20T07:32:38.855Z,1022.81
2017-05-20T07:33:39.497Z,1022.79
2017-05-20T07:34:40.133Z,1022.76
2017-05-20T07:35:40.767Z,1022.83
2017-05-20T07:36:41.407Z,1022.86
2017-05-20T07:37:42.249Z,1022.83
2017-05-20T07:38:42.890Z,1022.80
2017-05-20T07:39:43.530Z,1022.79
2017-05-20T07:40:44.169Z,1022.84
2017-05-20T07:41:44.810Z,1022.77
2017-05-20T07:42:45.456Z,1022.79
2017-05-20T07:43:46.149Z,1022.77
2017-05-20T07:44:46.790Z,1022.75
2017-05-20T07:45:47.580Z,1022.79
2017-05-20T07:46:48.215Z,1022.84
2017-05-20T07:47:48.854Z,1022.71
2017-05-20T07:48:49.497Z,1022.82
2017-05-20T07:49:50.138Z,1022.74
2017-05-20T07:50:50.780Z,1022.82
2017-05-20T07:51:51.420Z,1022.79
2017-05-20T07:52:52.059Z,1022.79
2017-05-20T07:53:52.899Z,1022.93
2017-05-20T07:54:53.542Z,1022.90
2017-05-20T07:55:54.178Z,1022.92
2017-05-20T07:56:54.818Z,1022.98
2017-05-20T07:57:55.457Z,1022.98
2017-05-20T07:58:56.094Z,1022.94
2017-05-20T07:59:56.730Z,1022.94
2017-05-20T08:00:57.366Z,1022.91
2017-05-20T08:01:58.154Z,1023.01
2017-05-20T08:02:58.798Z,1022.97
2017-05-20T08:03:59.435Z,1023.02
2017-05-20T08:05:00.074Z,1022.94
2017-05-20T08:06:00.714Z,1023.01
2017-05-20T08:07:01.350Z,1022.96
2017-05-20T08:08:01.990Z,1023.00
2017-05-20T08:09:02.626Z,1022.99
2017-05-20T08:10:03.268Z,1023.00
2017-05-20T08:11:04.102Z,1023.07
2017-05-20T08:12:04.745Z,1023.01
2017-05-20T08:13:05.385Z,1023.13
2017-05-20T08:14:06.026Z,1023.09
2017-05-20T08:15:06.662Z,1023.11
2017-05-20T08:16:07.299Z,1023.10
2017-05-20T08:17:07.933Z,1023.11
2017-05-20T08:18:08.575Z,1023.09
2017-05-20T08:19:09.463Z,1023.08
2017-05-20T08:20:10.100Z,1023.05
2017-05-20T08:21:10.740Z,1023.10
2017-05-20T08:22:11.383Z,1023.10
2017-05-20T08:23:12.020Z,1023.04
2017-05-20T08:24:12.660Z,1023.05
2017-05-20T08:25:13.298Z,1023.10
2017-05-20T08:26:13.935Z,1023.16
2017-05-20T08:27:14.774Z,1023.02
2017-05-20T08:28:15.416Z,1023.10
2017-05-20T08:29:16.051Z,1023.10
2017-05-20T08:30:16.692Z,1023.13
2017-05-20T08:31:17.329Z,1023.07
2017-05-20T08:32:17.969Z,1023.09
2017-05-20T08:33:18.606Z,1023.06
2017-05-20T08:34:19.240Z,1023.13
2017-05-20T08:35:20.079Z,1023.07
2017-05-20T08:36:20.724Z,1023.08
2017-05-20T08:37:21.362Z,1023.06
2017-05-20T08:38:21.997Z,1023.11
2017-05-20T08:39:22.637Z,1023.01
2017-05-20T08:40:23.273Z,1023.08
2017-05-20T08:41:23.914Z,1023.04
2017-05-20T08:42:24.555Z,1023.07
2017-05-20T08:43:25.394Z,1023.04
2017-05-20T08:44:26.034Z,1023.08
2017-05-20T08:45:26.670Z,1023.03
2017-05-20T08:46:27.316Z,1023.04
2017-05-20T08:47:27.949Z,1023.08
2017-05-20T08:48:28.587Z,1023.06
2017-05-20T08:49:29.226Z,1023.10
2017-05-20T08:50:29.866Z,1022.98
2017-05-20T08:51:30.510Z,1022.99
2017-05-20T08:52:31.501Z,1023.01
2017-05-20T08:53:32.093Z,1022.94
2017-05-20T08:54:32.731Z,1023.09
2017-05-20T08:55:33.370Z,1023.06
2017-05-20T08:56:34.008Z,1023.05
2017-05-20T08:57:34.653Z,1023.07
2017-05-20T08:58:35.354Z,1022.98
2017-05-20T08:59:35.993Z,1023.00
2017-05-20T09:00:36.786Z,1022.98
2017-05-20T09:01:37.426Z,1022.99
2017-05-20T09:02:38.070Z,1022.93
2017-05-20T09:03:39.032Z,1022.87
2017-05-20T09:04:39.671Z,1022.91
2017-05-20T09:05:40.314Z,1022.96
2017-05-20T09:06:40.957Z,1022.86
2017-05-20T09:07:41.604Z,1022.85
2017-05-20T09:08:42.448Z,1022.86
2017-05-20T09:09:43.093Z,1022.87
2017-05-20T09:10:43.737Z,1022.78
2017-05-20T09:11:44.379Z,1022.87
2017-05-20T09:12:45.024Z,1022.80
2017-05-20T09:13:45.672Z,1022.86
2017-05-20T09:14:46.318Z,1022.83
2017-05-20T09:15:46.963Z,1022.76
2017-05-20T09:16:47.911Z,1022.76
2017-05-20T09:17:48.556Z,1022.78
2017-05-20T09:18:49.204Z,1022.78
2017-05-20T09:19:49.851Z,1022.76
2017-05-20T09:20:50.496Z,1022.76
2017-05-20T09:21:51.136Z,1022.73
2017-05-20T09:22:51.780Z,1022.78
2017-05-20T09:23:52.423Z,1022.74
2017-05-20T09:24:53.065Z,1022.64
2017-05-20T09:25:53.908Z,1022.68
2017-05-20T09:26:54.556Z,1022.65
2017-05-20T09:27:55.204Z,1022.69
2017-05-20T09:28:56.185Z,1022.72
2017-05-20T09:29:56.811Z,1022.72
2017-05-20T09:30:57.451Z,1022.72
2017-05-20T09:31:58.091Z,1022.74
2017-05-20T09:32:58.730Z,1022.63
2017-05-20T09:33:59.522Z,1022.71
2017-05-20T09:35:00.167Z,1022.70
2017-05-20T09:36:00.813Z,1022.76
2017-05-20T09:37:01.452Z,1022.76
2017-05-20T09:38:02.096Z,1022.69
2017-05-20T09:39:02.742Z,1022.72
2017-05-20T09:40:03.383Z,1022.74
2017-05-20T09:41:04.032Z,1022.77
2017-05-20T09:42:04.871Z,1022.83
2017-05-20T09:43:05.515Z,1022.75
2017-05-20T09:44:06.210Z,1022.82
2017-05-20T09:45:06.852Z,1022.77
2017-05-20T09:46:07.498Z,1022.86
2017-05-20T09:47:08.138Z,1022.83
2017-05-20T09:48:08.779Z,1022.84
2017-05-20T09:49:09.423Z,1022.77
2017-05-20T09:50:10.215Z,1022.79
2017-05-20T09:51:10.862Z,1022.80
2017-05-20T09:52:11.504Z,1022.76
2017-05-20T09:53:12.151Z,1022.78
2017-05-20T09:54:12.794Z,1022.76
2017-05-20T09:55:13.446Z,1022.74
2017-05-20T09:56:14.086Z,1022.69
2017-05-20T09:57:14.730Z,1022.75
2017-05-20T09:58:15.624Z,1022.74
2017-05-20T09:59:16.269Z,1022.67
2017-05-20T10:00:16.915Z,1022.66
2017-05-20T10:01:17.564Z,1022.69
2017-05-20T10:02:18.209Z,1022.66
2017-05-20T10:03:18.857Z,1022.60
2017-05-20T10:04:19.502Z,1022.67
2017-05-20T10:05:20.148Z,1022.66
2017-05-20T10:06:20.796Z,1022.60
2017-05-20T10:07:21.588Z,1022.56
2017-05-20T10:08:22.234Z,1022.66
2017-05-20T10:09:22.880Z,1022.71
2017-05-20T10:10:23.525Z,1022.64
2017-05-20T10:11:24.173Z,1022.61
2017-05-20T10:12:24.813Z,1022.57
2017-05-20T10:13:25.459Z,1022.60
2017-05-20T10:14:26.099Z,1022.50
2017-05-20T10:15:26.953Z,1022.63
2017-05-20T10:16:27.594Z,1022.64
2017-05-20T10:17:28.237Z,1022.59
2017-05-20T10:18:28.879Z,1022.71
2017-05-20T10:19:29.519Z,1022.67
2017-05-20T10:20:30.166Z,1022.70
2017-05-20T10:21:30.814Z,1022.65
2017-05-20T10:22:31.463Z,1022.64
2017-05-20T10:23:32.262Z,1022.62
2017-05-20T10:24:32.900Z,1022.62
2017-05-20T10:25:33.547Z,1022.57
2017-05-20T10:26:34.193Z,1022.65
2017-05-20T10:27:34.838Z,1022.68
2017-05-20T10:28:35.479Z,1022.65
2017-05-20T10:29:36.123Z,1022.64
2017-05-20T10:30:36.771Z,1022.63
2017-05-20T10:31:37.614Z,1022.66
2017-05-20T10:32:38.260Z,1022.70
2017-05-20T10:33:38.905Z,1022.61
2017-05-20T10:34:39.552Z,1022.57
2017-05-20T10:35:40.197Z,1022.64
2017-05-20T10:36:40.841Z,1022.57
2017-05-20T10:37:41.490Z,1022.60
2017-05-20T10:38:42.138Z,1022.61
2017-05-20T10:39:42.783Z,1022.55
2017-05-20T10:40:43.630Z,1022.63
2017-05-20T10:41:44.279Z,1022.53
2017-05-20T10:42:44.929Z,1022.54
2017-05-20T10:43:45.588Z,1022.50
2017-05-20T10:44:46.236Z,1022.53
2017-05-20T10:45:46.882Z,1022.49
2017-05-20T10:46:47.535Z,1022.51
2017-05-20T10:47:48.503Z,1022.54
2017-05-20T10:48:49.296Z,1022.55
2017-05-20T10:49:49.947Z,1022.58
2017-05-20T10:50:50.597Z,1022.57
2017-05-20T10:51:51.244Z,1022.58
2017-05-20T10:52:51.888Z,1022.50
2017-05-20T10:53:52.537Z,1022.54
2017-05-20T10:54:53.187Z,1022.62
2017-05-20T10:55:53.835Z,1022.54
2017-05-20T10:56:54.683Z,1022.54
2017-05-20T10:57:55.333Z,1022.49
2017-05-20T10:58:55.976Z,1022.55
2017-05-20T10:59:56.626Z,1022.48
2017-05-20T11:00:57.276Z,1022.49
2017-05-20T11:01:57.924Z,1022.51
2017-05-20T11:02:58.573Z,1022.50
2017-05-20T11:03:59.226Z,1022.45
2017-05-20T11:05:00.076Z,1022.51
2017-05-20T11:06:00.730Z,1022.52
2017-05-20T11:07:01.373Z,1022.46
2017-05-20T11:08:02.024Z,1022.43
2017-05-20T11:09:02.678Z,1022.49
2017-05-20T11:10:03.328Z,1022.50
2017-05-20T11:11:03.979Z,1022.56
2017-05-20T11:12:04.631Z,1022.59
2017-05-20T11:13:05.432Z,1022.50
2017-05-20T11:14:06.083Z,1022.48
2017-05-20T11:15:06.736Z,1022.47
2017-05-20T11:16:07.385Z,1022.46
2017-05-20T11:17:08.037Z,1022.41
2017-05-20T11:18:08.689Z,1022.43
2017-05-20T11:19:09.341Z,1022.46
2017-05-20T11:20:09.988Z,1022.44
2017-05-20T11:21:10.643Z,1022.38
2017-05-20T11:22:11.494Z,1022.45
2017-05-20T11:23:12.154Z,1022.48
2017-05-20T11:24:12.799Z,1022.50
2017-05-20T11:25:13.450Z,1022.48
2017-05-20T11:26:14.102Z,1022.55
2017-05-20T11:27:14.753Z,1022.51
2017-05-20T11:28:15.404Z,1022.42
2017-05-20T11:29:16.056Z,1022.52
2017-05-20T11:30:21.912Z,1022.51
2017-05-20T11:31:22.567Z,1022.51
2017-05-20T11:32:23.221Z,1022.51
2017-05-20T11:33:23.928Z,1022.54
2017-05-20T11:34:24.578Z,1022.54
2017-05-20T11:35:25.232Z,1022.45
2017-05-20T11:36:25.883Z,1022.43
2017-05-20T11:37:26.532Z,1022.36
2017-05-20T11:38:27.429Z,1022.32
2017-05-20T11:39:28.086Z,1022.33
2017-05-20T11:40:28.738Z,1022.35
2017-05-20T11:41:29.392Z,1022.34
2017-05-20T11:42:30.046Z,1022.41
2017-05-20T11:43:30.699Z,1022.26
2017-05-20T11:44:31.349Z,1022.34
2017-05-20T11:45:32.004Z,1022.30
2017-05-20T11:46:32.905Z,1022.31
2017-05-20T11:47:33.559Z,1022.31
2017-05-20T11:48:34.214Z,1022.38
2017-05-20T11:49:34.871Z,1022.30
2017-05-20T11:50:35.529Z,1022.26
2017-05-20T11:51:36.183Z,1022.34
2017-05-20T11:52:36.841Z,1022.38
2017-05-20T11:53:37.493Z,1022.35
2017-05-20T11:54:38.543Z,1022.25
2017-05-20T11:55:39.192Z,1022.24
2017-05-20T11:56:39.846Z,1022.23
2017-05-20T11:57:40.501Z,1022.21
2017-05-20T11:58:41.161Z,1022.21
2017-05-20T11:59:41.812Z,1022.22
2017-05-20T12:00:42.464Z,1022.21
2017-05-20T12:01:43.119Z,1022.16
2017-05-20T12:02:43.777Z,1022.15
2017-05-20T12:03:44.629Z,1022.10
2017-05-20T12:04:45.287Z,1022.12
2017-05-20T12:05:45.942Z,1022.06
2017-05-20T12:06:46.547Z,1022.10
2017-05-20T12:07:47.205Z,1022.02
2017-05-20T12:08:47.862Z,1021.98
2017-05-20T12:09:48.517Z,1021.97
2017-05-20T12:10:49.174Z,1022.02
2017-05-20T12:11:50.130Z,1021.99
2017-05-20T12:12:50.786Z,1022.07
2017-05-20T12:13:51.441Z,1022.06